x

Buoy I01 - Eastern Maine Shelf (44034) Wave Buoy

10:04 - Wed 10th Feb 2016 All times are EST. -5 hours from GMT.

  • Sig Wave height 3.0ft
  • Peak Period 11s
  • Wind
    7mph, 9mph gusts
  • Sea Temp 41°f
  • Ar Temp 28°f
  • Sea Pressure 1002.9mb
  • Buoy I01 - Eastern Maine Shelf
  • Buoy I01 - Eastern Maine Shelf

More Historic Weather Station data

Upgrade to MSW Pro to gain access to the past 30 days of data for over 8000 Wavebouys and Weather Stations around the globe.

Join Pro

Comparision Forecast

View Surf forecast
   
Qua 02/10 10:04 3ft 11s 7 9 mph 1002.9mb 41f 28f
9:04 3ft 11s 4 9 mph 1003.1mb 41f 27f
8:04 3.5ft 11s 9 11 mph - 41f 26f
7:04 3ft 11s 4 9 mph - 41f 24f
6:04  -   -  9 11 mph - 41f 24f
5:04 4.5ft 11s 9 13 mph - 41f 24f
4:04 4.5ft 11s 11 18 mph - 41f 24f
3:04 4.5ft 11s 9 16 mph - 41f 25f
2:04 4.5ft 11s 11 16 mph - 42f 25f
1:04  -   -  11 13 mph - 43f 25f
12:04  -   -  11 18 mph - 43f 26f
Ter 02/09 11:04  -   -  9 13 mph - 43f 26f
10:04  -   -  11 16 mph - 43f 26f
9:04 6.5ft 11s 13 16 mph - 43f 26f
8:04 2ft 3s 13 18 mph - 42f 26f
7:04 2ft 5s 16 20 mph - 42f 26f
6:04 1.6ft 3s 13 18 mph - 42f 27f
5:04  -   -  16 18 mph - 42f 26f
4:04  -   -  16 22 mph - 43f 27f
3:04 11.5ft 16s 16 18 mph - 43f 26f
2:04 12ft 16s 11 16 mph - 43f 25f
1:04 12.5ft 16s 11 16 mph - 43f 25f
12:04  -   -  11 16 mph - 43f 24f
11:04 3.5ft 5s 13 20 mph - 43f 24f
10:04 5ft 5s 13 16 mph - 43f 23f
9:04  -   -  16 20 mph - 42f 23f
8:04  -   -  18 22 mph - 42f 23f
7:04 6ft 6s 18 25 mph - 42f 24f
6:04 7ft 6s 22 29 mph - 42f 24f
5:04 7ft 6s 27 34 mph - 42f 24f
4:04 6.5ft 6s 27 31 mph - 42f 23f
3:04 9ft 11s 27 34 mph - 42f 23f
2:04 5.5ft 5s 29 36 mph 1001.2mb 42f 23f
1:04 8.5ft 8s 31 38 mph 1001.9mb 42f 24f
12:04 11ft 11s 31 38 mph 1002.4mb 42f 24f
Seg 02/08 11:04 11ft 11s 29 38 mph 1002.6mb 42f 24f
10:04 12ft 8s 31 38 mph 1002.7mb 42f 24f
9:04 11ft 11s 31 38 mph 1003.7mb 43f 24f
8:04 12ft 8s 31 40 mph 1004.3mb 42f 24f
7:04 12ft 8s 36 43 mph 1005.1mb 42f 25f
6:04 13ft 11s 34 40 mph 1005.9mb 42f 25f
5:04 11ft 8s 36 45 mph 1006.2mb 42f 25f
4:04 13ft 8s 36 43 mph 1005.9mb 43f 25f
3:04 12ft 8s 36 45 mph 1006.3mb 43f 25f
2:04 11.5ft 8s 36 43 mph 1007.1mb 43f 25f
1:04 10ft 8s 31 38 mph 1009mb 43f 25f
12:04 10ft 8s 31 38 mph 1009.5mb 43f 25f
11:04 10.5ft 8s 31 38 mph 1010.9mb 43f 25f
10:04 12ft 8s 31 40 mph 1011.1mb 42f 24f
9:04 10.5ft 8s 31 38 mph 1013mb 42f 24f
8:04 10ft 8s 31 36 mph 1014.2mb 42f 24f
7:04 10ft 8s 31 38 mph 1014.6mb 42f 24f
6:04 9ft 8s 31 38 mph 1016mb 42f 25f
5:04 8ft 6s 31 38 mph 1017.3mb 42f 24f
4:04 8ft 6s 31 38 mph 1018.4mb 42f 23f
3:04 6.5ft 6s 29 36 mph 1019.5mb 42f 25f
2:04 6ft 6s 29 38 mph 1020.5mb 42f 25f
1:04 5ft 5s 29 40 mph 1020.8mb 42f 26f
12:04 5ft 5s 31 38 mph 1020.9mb 42f 27f
Dom 02/07 11:04 4.5ft 5s 29 36 mph 1022.2mb 42f 28f
10:04 3.5ft 5s 25 29 mph 1023.3mb 41f 30f
9:04 3.5ft 5s 22 27 mph 1023mb 42f 32f
8:04 3ft 4s 20 22 mph 1022.7mb 42f 34f
7:04 2.5ft 3s 18 22 mph 1022mb 42f 36f
6:04 2.5ft 6s 13 18 mph 1021.7mb 42f 38f
5:04 3.5ft 11s 16 20 mph 1021.1mb 41f 38f
4:04 3.5ft 6s 11 13 mph 1021.4mb 41f 38f
3:04 3.5ft 5s 13 16 mph 1021.5mb 41f 37f
2:04 4ft 6s 13 16 mph 1020.8mb 41f 37f
1:04 4ft 6s 16 18 mph 1020.2mb 41f 39f
12:04 4.5ft 6s 13 16 mph 1019mb 42f 39f
11:04 5.5ft 8s 13 16 mph 1019.4mb 42f 38f
10:04 5ft 6s 16 18 mph 1019.4mb 42f 38f
9:04 5.5ft 6s 18 20 mph 1018.9mb 42f 38f
8:04 6ft 6s 18 22 mph 1018.9mb 42f 38f
7:04 6ft 6s 25 29 mph 1018.2mb 41f 39f
6:04 6.5ft 5s 22 27 mph 1017.8mb 41f 39f
5:04 6.5ft 6s 20 25 mph 1017.9mb 41f 39f
4:04 6ft 5s 25 27 mph 1017.9mb 42f 40f
3:04 8ft 8s 22 29 mph 1018.4mb 42f 40f
2:04 7ft 6s 25 31 mph 1019.2mb 42f 40f
1:04 7ft 5s 27 31 mph 1019.5mb 42f 40f
12:04 6.5ft 6s 25 29 mph 1020.5mb 41f 39f
Sáb 02/06 11:04 6ft 6s 25 29 mph 1020.9mb 41f 39f
10:04 7ft 6s 25 31 mph 1021.5mb 41f 39f
9:04 6ft 6s 27 31 mph 1021.9mb 42f 39f
8:04 6ft 5s 27 34 mph 1022.2mb 41f 39f
7:04 6ft 5s 27 34 mph 1022.6mb 41f 38f
6:04 7ft 5s 25 31 mph 1022.8mb 42f 38f
5:04 6ft 5s 25 31 mph 1022.9mb 42f 38f